Aérodrome :
LOGIN :

S'inscrire | Disclaimer

   EN    FR    IT 

 










Légende :    VFR   VFR Marginal   IFR   IFR Intensif   IFR Très Intensif
Visi : 
Plafond : 
>= 8 km
>= 3000ft
5 à 8 km
1000 à 3000 ft
1500m à 5 km
500 à 1000 ft
800 à 1500m
200 à 500 ft
< 800m
< 200 ft
Symboles :   Orages  Brouillard  Fortes neiges  Fortes précipitations  Vent > 20 kt
SIGMETs :   Divers  Orages  Givrage  Turbulence  Onde Orograph.  Cendres Volcan.







- Altitude de l'aérodrome : 28 ft
- Code IATA : SOZ
- Voir les cartes d'approche


LFKS - Solenzara

DERNIER METAR :
  • 171700Z AUTO 18005KT CAVOK 29/20 Q1015

METARs EXPIRÉS :
  • 171630Z AUTO 18004KT CAVOK 29/19 Q1015
  • 171600Z AUTO 17004KT 9999 FEW072 29/19 Q1015
  • 171530Z AUTO 17005KT 130V190 CAVOK 29/18 Q1016
  • 171500Z AUTO 15005KT 100V180 CAVOK 29/18 Q1016
  • 171430Z AUTO 17005KT 130V200 CAVOK 30/19 Q1016

TAF TAF LFKS
Valide du 17 à 15h jusqu'au 18 à 15h UTC


171400Z 1715/1815 27005KT CAVOK
BECMG 1807/1809 12010KT
Pas de NOTAMs connus pour ce terrain.



MET'MAP, la Météo Aéronautique d'un coup d'oeil ! - Copyright ORBIFLY Décembre 2007 - Disclaimer

ORBIFLY MET'MAP TEAM :

Programmation & Développement : Alexandra Zaïnal
Conception & Développement : Baudouin d'Aumeries
Co-Programmation & Développement : Marc-Olivier Méhu
Soutien technique & logistique : Manuel Goepfert

Contact : metmap@orbifly.com




SOURCES & CREDITS :

   NOAA